createdAt,value
2022-08-03T00:02:19.042Z,4.90
2022-08-03T00:04:46.681Z,5.00
2022-08-03T00:07:13.966Z,4.45
2022-08-03T00:09:41.265Z,5.63
2022-08-03T00:12:09.008Z,6.03
2022-08-03T00:14:36.484Z,5.70
2022-08-03T00:17:03.793Z,5.07
2022-08-03T00:19:31.090Z,5.25
2022-08-03T00:21:58.314Z,4.97
2022-08-03T00:24:25.622Z,6.10
2022-08-03T00:26:52.894Z,5.90
2022-08-03T00:29:20.112Z,5.28
2022-08-03T00:31:52.566Z,5.55
2022-08-03T00:34:30.955Z,5.50
2022-08-03T00:37:07.629Z,5.40
2022-08-03T00:39:34.834Z,5.97
2022-08-03T00:42:05.906Z,5.68
2022-08-03T00:44:41.018Z,6.10
2022-08-03T00:47:10.738Z,5.63
2022-08-03T00:49:41.139Z,5.72
2022-08-03T00:52:10.906Z,6.35
2022-08-03T00:54:39.954Z,6.50
2022-08-03T00:57:08.278Z,6.63
2022-08-03T00:59:35.661Z,6.72
2022-08-03T01:02:02.950Z,6.35
2022-08-03T01:04:30.204Z,6.65
2022-08-03T01:07:54.736Z,7.55
2022-08-03T01:10:42.913Z,6.35
2022-08-03T01:14:01.421Z,7.60
2022-08-03T01:16:42.455Z,6.28
2022-08-03T01:19:54.574Z,6.68
2022-08-03T01:23:03.525Z,6.53
2022-08-03T01:25:58.942Z,6.45
2022-08-03T01:29:18.700Z,7.10
2022-08-03T01:32:59.152Z,7.55
2022-08-03T01:35:09.002Z,6.50
2022-08-03T01:37:51.972Z,5.88
2022-08-03T01:40:24.622Z,7.25
2022-08-03T01:42:57.575Z,6.80
2022-08-03T01:45:26.650Z,8.43
2022-08-03T01:47:55.945Z,7.82
2022-08-03T01:50:29.286Z,7.13
2022-08-03T01:52:59.067Z,7.65
2022-08-03T01:55:29.601Z,7.00
2022-08-03T01:58:04.813Z,7.43
2022-08-03T02:00:37.708Z,7.90
2022-08-03T02:03:08.633Z,7.00
2022-08-03T02:05:39.296Z,7.35
2022-08-03T02:08:13.975Z,7.40
2022-08-03T02:10:46.184Z,6.57
2022-08-03T02:13:16.334Z,6.90
2022-08-03T02:15:44.846Z,6.25
2022-08-03T02:18:13.940Z,7.65
2022-08-03T02:20:44.431Z,8.00
2022-08-03T02:23:12.146Z,7.15
2022-08-03T02:25:47.067Z,7.90
2022-08-03T02:28:22.358Z,6.85
2022-08-03T02:30:56.767Z,7.03
2022-08-03T02:33:47.292Z,7.35
2022-08-03T02:36:19.962Z,7.40
2022-08-03T02:38:54.940Z,7.20
2022-08-03T02:44:10.862Z,6.75
2022-08-03T02:46:49.427Z,6.78
2022-08-03T02:49:35.394Z,7.80
2022-08-03T02:52:15.480Z,7.40
2022-08-03T02:54:47.712Z,6.85
2022-08-03T02:57:18.624Z,7.85
2022-08-03T02:59:47.682Z,6.63
2022-08-03T03:02:17.841Z,6.60
2022-08-03T03:05:50.808Z,8.05
2022-08-03T03:07:46.897Z,6.93
2022-08-03T03:10:25.844Z,7.47
2022-08-03T03:12:57.345Z,7.43
2022-08-03T03:15:29.105Z,8.35
2022-08-03T03:17:58.114Z,6.80
2022-08-03T03:20:30.124Z,7.55
2022-08-03T03:23:01.558Z,7.07
2022-08-03T03:25:33.213Z,7.35
2022-08-03T03:28:02.899Z,6.97
2022-08-03T03:30:30.352Z,7.63
2022-08-03T03:32:59.277Z,7.22
2022-08-03T03:35:28.204Z,7.22
2022-08-03T03:37:55.637Z,7.22
2022-08-03T03:40:23.674Z,6.75
2022-08-03T03:42:51.220Z,7.30
2022-08-03T03:45:20.680Z,7.35
2022-08-03T03:47:48.288Z,7.75
2022-08-03T03:50:18.438Z,6.90
2022-08-03T03:52:45.803Z,7.60
2022-08-03T03:55:18.337Z,8.32
2022-08-03T03:57:46.462Z,7.32
2022-08-03T04:00:17.854Z,6.93
2022-08-03T04:02:46.518Z,8.20
2022-08-03T04:05:34.118Z,6.78
2022-08-03T04:11:19.115Z,6.75
2022-08-03T04:13:57.546Z,7.55
2022-08-03T04:16:35.287Z,7.70
2022-08-03T04:19:23.254Z,6.60
2022-08-03T04:21:57.724Z,7.13
2022-08-03T04:24:35.371Z,8.02
2022-08-03T04:27:09.562Z,7.47
2022-08-03T04:29:48.565Z,7.68
2022-08-03T04:32:18.183Z,6.88
2022-08-03T04:34:46.912Z,8.75
2022-08-03T04:37:38.531Z,7.38
2022-08-03T04:40:22.857Z,7.18
2022-08-03T04:42:55.781Z,8.18
2022-08-03T04:45:24.843Z,7.82
2022-08-03T04:47:53.314Z,6.88
2022-08-03T04:50:22.114Z,7.00
2022-08-03T04:53:07.218Z,7.35
2022-08-03T04:55:36.542Z,7.40
2022-08-03T04:58:06.412Z,7.65
2022-08-03T05:00:33.695Z,7.82
2022-08-03T05:03:00.894Z,7.97
2022-08-03T05:05:49.643Z,7.07
2022-08-03T05:08:16.461Z,8.00
2022-08-03T05:10:48.558Z,7.20
2022-08-03T05:13:15.935Z,7.88
2022-08-03T05:15:43.406Z,7.00
2022-08-03T05:18:14.105Z,7.95
2022-08-03T05:20:41.886Z,7.28
2022-08-03T05:23:09.057Z,7.20
2022-08-03T05:25:36.412Z,6.75
2022-08-03T05:28:04.448Z,7.18
2022-08-03T05:30:34.126Z,6.95
2022-08-03T05:33:03.811Z,6.60
2022-08-03T05:35:57.788Z,6.95
2022-08-03T05:38:24.092Z,6.38
2022-08-03T05:41:21.376Z,7.03
2022-08-03T05:43:45.585Z,7.00
2022-08-03T05:46:13.335Z,6.70
2022-08-03T05:48:42.851Z,7.97
2022-08-03T05:51:11.768Z,7.32
2022-08-03T05:53:42.306Z,7.07
2022-08-03T05:56:14.261Z,7.55
2022-08-03T05:58:48.070Z,8.10
2022-08-03T06:01:17.292Z,6.63
2022-08-03T06:03:46.368Z,6.43
2022-08-03T06:06:14.164Z,6.88
2022-08-03T06:08:43.785Z,6.13
2022-08-03T06:11:11.564Z,6.65
2022-08-03T06:13:39.397Z,6.82
2022-08-03T06:16:06.894Z,6.40
2022-08-03T06:18:35.110Z,6.93
2022-08-03T06:21:13.993Z,6.30
2022-08-03T06:23:54.642Z,6.22
2022-08-03T06:26:26.556Z,6.18
2022-08-03T06:28:55.022Z,5.28
2022-08-03T06:31:33.107Z,5.93
2022-08-03T06:34:33.639Z,6.15
2022-08-03T06:36:58.476Z,5.00
2022-08-03T06:39:29.559Z,5.03
2022-08-03T06:41:56.797Z,3.92
2022-08-03T06:44:24.109Z,5.10
2022-08-03T06:46:51.831Z,5.20
2022-08-03T06:49:19.684Z,4.43
2022-08-03T06:52:03.491Z,5.65
2022-08-03T06:54:33.851Z,4.93
2022-08-03T06:57:01.302Z,4.40
2022-08-03T07:00:08.292Z,4.20
2022-08-03T07:02:19.461Z,4.45
2022-08-03T07:04:49.070Z,4.10
2022-08-03T07:07:17.391Z,4.90
2022-08-03T07:09:54.953Z,5.65
2022-08-03T07:12:25.343Z,4.40
2022-08-03T07:14:55.504Z,3.97
2022-08-03T07:17:25.795Z,4.05
2022-08-03T07:19:53.010Z,3.00
2022-08-03T07:22:20.248Z,4.20
2022-08-03T07:24:47.798Z,3.90
2022-08-03T07:27:16.949Z,3.47
2022-08-03T07:29:44.286Z,3.67
2022-08-03T07:32:11.459Z,4.32
2022-08-03T07:34:38.726Z,4.28
2022-08-03T07:37:06.021Z,5.00
2022-08-03T07:39:33.414Z,4.90
2022-08-03T07:42:00.651Z,4.18
2022-08-03T07:44:27.861Z,4.88
2022-08-03T07:46:55.183Z,4.95
2022-08-03T07:49:24.213Z,4.05
2022-08-03T07:52:11.481Z,4.85
2022-08-03T07:54:38.844Z,4.72
2022-08-03T07:57:06.311Z,3.40
2022-08-03T08:00:01.652Z,4.53
2022-08-03T08:02:22.467Z,3.90
2022-08-03T08:04:50.568Z,4.05
2022-08-03T08:07:18.186Z,4.22
2022-08-03T08:09:47.887Z,4.10
2022-08-03T08:12:16.107Z,4.22
2022-08-03T08:14:45.884Z,5.43
2022-08-03T08:17:14.499Z,3.90
2022-08-03T08:19:51.331Z,3.55
2022-08-03T08:22:28.735Z,3.75
2022-08-03T08:24:59.767Z,4.20
2022-08-03T08:27:28.786Z,5.22
2022-08-03T08:30:21.288Z,3.40
2022-08-03T08:32:50.383Z,4.70
2022-08-03T08:35:19.591Z,3.47
2022-08-03T08:37:50.766Z,4.60
2022-08-03T08:40:22.572Z,3.90
2022-08-03T08:42:58.780Z,4.18
2022-08-03T08:48:01.799Z,3.88
2022-08-03T08:50:31.038Z,3.75
2022-08-03T08:53:03.730Z,4.85
2022-08-03T08:55:58.041Z,4.32
2022-08-03T08:58:22.766Z,4.43
2022-08-03T09:00:51.577Z,4.43
2022-08-03T09:03:22.742Z,4.07
2022-08-03T09:06:02.405Z,4.50
2022-08-03T09:08:32.760Z,4.35
2022-08-03T09:11:00.653Z,4.38
2022-08-03T09:13:29.083Z,4.95
2022-08-03T09:16:21.265Z,4.28
2022-08-03T09:18:54.531Z,4.55
2022-08-03T09:21:33.572Z,4.05
2022-08-03T09:24:07.063Z,4.78
2022-08-03T09:26:38.262Z,4.97
2022-08-03T09:29:14.813Z,3.50
2022-08-03T09:31:46.982Z,4.78
2022-08-03T09:34:18.217Z,4.65
2022-08-03T09:36:48.897Z,4.30
2022-08-03T09:39:41.421Z,4.20
2022-08-03T09:42:18.725Z,4.85
2022-08-03T09:44:52.268Z,4.63
2022-08-03T09:47:44.757Z,4.47
2022-08-03T09:50:12.993Z,4.93
2022-08-03T09:52:51.979Z,4.70
2022-08-03T09:56:30.971Z,5.05
2022-08-03T09:58:11.327Z,3.53
2022-08-03T10:01:04.022Z,4.07
2022-08-03T10:04:03.244Z,4.63
2022-08-03T10:06:29.012Z,4.88
2022-08-03T10:09:16.870Z,4.60
2022-08-03T10:11:46.945Z,5.68
2022-08-03T10:14:19.180Z,4.93
2022-08-03T10:16:49.026Z,4.80
2022-08-03T10:19:17.400Z,5.05
2022-08-03T10:21:56.289Z,5.57
2022-08-03T10:24:30.922Z,5.22
2022-08-03T10:27:11.445Z,6.43
2022-08-03T10:29:45.692Z,6.20
2022-08-03T10:32:42.155Z,6.45
2022-08-03T10:35:20.096Z,5.18
2022-08-03T10:38:07.277Z,5.65
2022-08-03T10:40:48.577Z,5.32
2022-08-03T10:43:37.069Z,5.45
2022-08-03T10:46:07.993Z,5.57
2022-08-03T10:48:37.429Z,5.18
2022-08-03T10:51:06.769Z,5.22
2022-08-03T10:53:54.235Z,5.05
2022-08-03T10:57:14.676Z,5.35
2022-08-03T10:59:51.012Z,5.75
2022-08-03T11:02:18.667Z,5.10
2022-08-03T11:04:45.957Z,5.85
2022-08-03T11:07:23.506Z,5.15
2022-08-03T11:09:56.657Z,5.38
2022-08-03T11:12:33.862Z,5.43
2022-08-03T11:15:08.773Z,5.38
2022-08-03T11:17:46.421Z,5.30
2022-08-03T11:20:51.366Z,5.45
2022-08-03T11:24:02.834Z,5.55
2022-08-03T11:26:34.178Z,5.82
2022-08-03T11:29:31.670Z,4.22
2022-08-03T11:31:59.178Z,5.05
2022-08-03T11:34:26.740Z,4.28
2022-08-03T11:38:03.220Z,4.80
2022-08-03T11:40:52.950Z,4.57
2022-08-03T11:43:30.802Z,4.30
2022-08-03T11:46:28.208Z,3.03
2022-08-03T11:49:10.832Z,4.15
2022-08-03T11:51:40.603Z,3.95
2022-08-03T11:54:08.400Z,4.00
2022-08-03T11:56:50.591Z,4.20
2022-08-03T11:59:21.887Z,3.97
2022-08-03T12:01:50.812Z,3.58
2022-08-03T12:04:19.304Z,3.20
2022-08-03T12:07:02.263Z,4.45
2022-08-03T12:09:29.579Z,3.53
2022-08-03T12:12:00.345Z,3.28
2022-08-03T12:14:49.684Z,4.55
2022-08-03T12:17:19.657Z,3.53
2022-08-03T12:19:47.444Z,3.72
2022-08-03T12:22:16.766Z,2.75
2022-08-03T12:24:48.020Z,3.10
2022-08-03T12:27:29.731Z,3.25
2022-08-03T12:30:01.561Z,3.80
2022-08-03T12:32:30.668Z,3.80
2022-08-03T12:35:01.650Z,3.55
2022-08-03T12:37:29.935Z,3.00
2022-08-03T12:40:07.791Z,3.65
2022-08-03T12:42:40.764Z,3.60
2022-08-03T12:45:31.932Z,3.85
2022-08-03T12:48:02.383Z,3.65
2022-08-03T12:50:32.097Z,3.35
2022-08-03T12:53:02.563Z,2.83
2022-08-03T12:55:57.229Z,3.25
2022-08-03T12:58:34.933Z,3.72
2022-08-03T13:01:09.975Z,3.03
2022-08-03T13:03:50.349Z,3.25
2022-08-03T13:06:29.329Z,3.25
2022-08-03T13:09:07.858Z,3.33
2022-08-03T13:11:57.660Z,2.58
2022-08-03T13:14:23.664Z,3.55
2022-08-03T13:16:52.184Z,3.85
2022-08-03T13:19:19.445Z,2.90
2022-08-03T13:21:53.578Z,3.15
2022-08-03T13:24:33.643Z,3.22
2022-08-03T13:28:02.086Z,3.22
2022-08-03T13:29:51.041Z,3.20
2022-08-03T13:32:19.363Z,3.95
2022-08-03T13:34:47.226Z,3.30
2022-08-03T13:37:15.060Z,3.03
2022-08-03T13:39:59.867Z,3.05
2022-08-03T13:42:32.564Z,3.60
2022-08-03T13:45:02.369Z,3.78
2022-08-03T13:47:29.790Z,2.97
2022-08-03T13:50:01.013Z,3.00
2022-08-03T13:52:36.591Z,3.13
2022-08-03T13:55:06.915Z,3.00
2022-08-03T13:58:06.682Z,2.85
2022-08-03T14:00:27.059Z,2.78
2022-08-03T14:03:05.057Z,2.90
2022-08-03T14:05:34.039Z,3.30
2022-08-03T14:08:04.261Z,2.50
2022-08-03T14:10:43.357Z,2.75
2022-08-03T14:13:17.588Z,3.30
2022-08-03T14:15:49.916Z,3.23
2022-08-03T14:18:27.665Z,2.80
2022-08-03T14:21:03.485Z,3.15
2022-08-03T14:23:34.887Z,2.85
2022-08-03T14:26:02.124Z,3.25
2022-08-03T14:28:29.326Z,3.35
2022-08-03T14:30:56.961Z,2.45
2022-08-03T14:33:24.746Z,2.67
2022-08-03T14:35:53.108Z,3.03
2022-08-03T14:38:21.368Z,3.28
2022-08-03T14:40:49.296Z,2.85
2022-08-03T14:43:23.231Z,3.17
2022-08-03T14:45:53.450Z,2.70
2022-08-03T14:50:32.312Z,3.30
2022-08-03T14:51:10.490Z,3.13
2022-08-03T14:53:37.827Z,3.20
2022-08-03T14:56:10.124Z,2.95
2022-08-03T14:58:38.665Z,2.83
2022-08-03T15:02:06.334Z,3.22
2022-08-03T15:03:54.679Z,2.38
2022-08-03T15:06:21.942Z,3.38
2022-08-03T15:09:13.634Z,2.95
2022-08-03T15:11:37.306Z,2.92
2022-08-03T15:14:08.948Z,2.80
2022-08-03T15:16:37.596Z,3.67
2022-08-03T15:20:03.796Z,2.40
2022-08-03T15:21:53.553Z,3.22
2022-08-03T15:24:20.907Z,3.00
2022-08-03T15:26:48.105Z,2.53
2022-08-03T15:30:05.427Z,2.63
2022-08-03T15:32:05.007Z,3.30
2022-08-03T15:34:36.028Z,2.90
2022-08-03T15:37:05.198Z,2.50
2022-08-03T15:39:59.105Z,2.30
2022-08-03T15:42:31.207Z,3.08
2022-08-03T15:44:58.550Z,2.83
2022-08-03T15:47:26.858Z,2.90
2022-08-03T15:49:54.143Z,3.17
2022-08-03T15:52:21.378Z,2.40
2022-08-03T15:54:48.642Z,2.60
2022-08-03T15:57:15.847Z,3.15
2022-08-03T15:59:43.052Z,2.55
2022-08-03T16:02:10.669Z,2.50
2022-08-03T16:04:37.927Z,2.80
2022-08-03T16:07:05.490Z,2.55
2022-08-03T16:09:43.291Z,2.58
2022-08-03T16:12:16.020Z,2.05
2022-08-03T16:14:52.932Z,2.58
2022-08-03T16:17:22.563Z,2.95
2022-08-03T16:19:53.431Z,2.67
2022-08-03T16:22:24.199Z,2.90
2022-08-03T16:24:53.793Z,2.15
2022-08-03T16:27:58.098Z,2.55
2022-08-03T16:30:18.593Z,2.63
2022-08-03T16:32:46.282Z,2.63
2022-08-03T16:35:19.870Z,2.45
2022-08-03T16:37:56.286Z,2.58
2022-08-03T16:40:25.274Z,2.75
2022-08-03T16:42:52.753Z,2.50
2022-08-03T16:45:20.132Z,2.65
2022-08-03T16:47:47.570Z,2.60
2022-08-03T16:50:28.636Z,2.65
2022-08-03T16:52:56.308Z,2.28
2022-08-03T16:55:48.582Z,2.70
2022-08-03T16:58:12.493Z,2.38
2022-08-03T17:00:41.657Z,2.67
2022-08-03T17:03:19.014Z,2.88
2022-08-03T17:05:52.266Z,3.33
2022-08-03T17:08:26.514Z,2.75
2022-08-03T17:10:56.018Z,2.20
2022-08-03T17:13:38.878Z,3.22
2022-08-03T17:16:12.026Z,3.17
2022-08-03T17:19:03.849Z,2.42
2022-08-03T17:21:39.313Z,2.55
2022-08-03T17:24:33.763Z,2.40
2022-08-03T17:27:18.634Z,2.35
2022-08-03T17:30:07.781Z,1.90
2022-08-03T17:32:42.293Z,2.58
2022-08-03T17:35:11.114Z,3.17
2022-08-03T17:37:57.573Z,2.75
2022-08-03T17:40:26.003Z,2.78
2022-08-03T17:42:54.291Z,2.95
2022-08-03T17:45:21.662Z,2.72
2022-08-03T17:47:57.550Z,2.38
2022-08-03T17:50:46.501Z,2.83
2022-08-03T17:53:24.530Z,2.22
2022-08-03T17:56:07.838Z,2.65
2022-08-03T17:59:15.588Z,2.40
2022-08-03T18:02:35.352Z,2.33
2022-08-03T18:05:16.798Z,2.45
2022-08-03T18:08:02.680Z,2.95
2022-08-03T18:10:36.405Z,2.57
2022-08-03T18:13:58.441Z,2.63
2022-08-03T18:16:38.314Z,2.95
2022-08-03T18:19:09.238Z,3.25
2022-08-03T18:22:03.570Z,2.20
2022-08-03T18:24:27.311Z,3.65
2022-08-03T18:26:59.535Z,3.05
2022-08-03T18:29:29.976Z,3.17
2022-08-03T18:32:02.749Z,3.28
2022-08-03T18:34:34.494Z,4.03
2022-08-03T18:37:07.710Z,3.80
2022-08-03T18:39:50.262Z,3.95
2022-08-03T18:42:25.813Z,3.28
2022-08-03T18:44:58.300Z,3.10
2022-08-03T18:47:50.703Z,2.60
2022-08-03T18:50:46.515Z,2.88
2022-08-03T18:56:54.848Z,3.33
2022-08-03T19:00:12.219Z,3.65
2022-08-03T19:02:55.881Z,3.97
2022-08-03T19:05:57.735Z,3.05
2022-08-03T19:08:28.616Z,3.15
2022-08-03T19:11:06.080Z,3.20
2022-08-03T19:13:50.424Z,3.83
2022-08-03T19:16:42.128Z,4.00
2022-08-03T19:19:14.452Z,3.45
2022-08-03T19:21:44.338Z,4.50
2022-08-03T19:24:14.085Z,3.85
2022-08-03T19:26:43.203Z,3.80
2022-08-03T19:29:18.579Z,3.92
2022-08-03T19:31:59.346Z,3.28
2022-08-03T19:34:30.614Z,3.95
2022-08-03T19:36:59.447Z,3.83
2022-08-03T19:39:27.468Z,3.83
2022-08-03T19:42:09.184Z,3.97
2022-08-03T19:44:59.238Z,3.53
2022-08-03T19:47:34.681Z,3.05
2022-08-03T19:50:13.985Z,4.07
2022-08-03T19:52:47.724Z,3.03
2022-08-03T19:55:18.491Z,3.40
2022-08-03T19:57:49.734Z,3.33
2022-08-03T20:00:26.394Z,4.40
2022-08-03T20:02:54.294Z,3.20
2022-08-03T20:05:21.608Z,3.55
2022-08-03T20:07:50.777Z,3.45
2022-08-03T20:10:20.735Z,3.97
2022-08-03T20:12:49.680Z,3.80
2022-08-03T20:15:22.541Z,3.88
2022-08-03T20:17:59.688Z,4.28
2022-08-03T20:20:35.668Z,3.53
2022-08-03T20:23:18.134Z,4.07
2022-08-03T20:26:00.691Z,3.85
2022-08-03T20:28:50.599Z,4.53
2022-08-03T20:31:22.757Z,3.85
2022-08-03T20:33:54.064Z,4.07
2022-08-03T20:36:22.739Z,3.42
2022-08-03T20:38:57.633Z,4.32
2022-08-03T20:41:25.699Z,3.58
2022-08-03T20:43:53.283Z,4.95
2022-08-03T20:46:31.093Z,3.88
2022-08-03T20:49:05.985Z,3.90
2022-08-03T20:51:49.820Z,4.22
2022-08-03T20:54:30.919Z,4.03
2022-08-03T20:57:04.377Z,4.30
2022-08-03T20:59:50.501Z,4.32
2022-08-03T21:02:30.096Z,4.03
2022-08-03T21:05:03.416Z,3.88
2022-08-03T21:08:06.402Z,4.03
2022-08-03T21:10:39.681Z,3.60
2022-08-03T21:13:30.001Z,4.55
2022-08-03T21:16:06.410Z,4.45
2022-08-03T21:18:53.409Z,4.85
2022-08-03T21:21:23.605Z,4.68
2022-08-03T21:23:54.767Z,4.43
2022-08-03T21:26:26.833Z,4.38
2022-08-03T21:28:56.774Z,4.15
2022-08-03T21:31:26.780Z,3.85
2022-08-03T21:33:57.900Z,3.70
2022-08-03T21:36:32.846Z,4.05
2022-08-03T21:39:02.562Z,4.07
2022-08-03T21:41:32.987Z,3.53
2022-08-03T21:44:02.035Z,3.80
2022-08-03T21:46:40.027Z,5.03
2022-08-03T21:50:05.893Z,5.30
2022-08-03T21:52:07.168Z,4.97
2022-08-03T21:54:43.330Z,4.45
2022-08-03T21:57:31.068Z,4.40
2022-08-03T22:00:14.598Z,5.93
2022-08-03T22:02:53.161Z,3.80
2022-08-03T22:05:42.549Z,3.92
2022-08-03T22:08:13.858Z,4.20
2022-08-03T22:10:45.859Z,4.10
2022-08-03T22:13:42.887Z,4.32
2022-08-03T22:16:05.940Z,4.03
2022-08-03T22:18:38.088Z,5.40
2022-08-03T22:21:09.133Z,4.93
2022-08-03T22:23:47.995Z,4.20
2022-08-03T22:26:34.844Z,5.43
2022-08-03T22:29:08.323Z,5.78
2022-08-03T22:31:58.363Z,5.28
2022-08-03T22:34:27.446Z,5.70
2022-08-03T22:37:02.094Z,6.03
2022-08-03T22:39:30.448Z,5.38
2022-08-03T22:42:01.610Z,5.35
2022-08-03T22:44:29.586Z,4.32
2022-08-03T22:46:58.014Z,5.57
2022-08-03T22:49:28.133Z,5.47
2022-08-03T22:51:56.420Z,5.22
2022-08-03T22:54:25.626Z,4.60
2022-08-03T22:56:53.066Z,5.25
2022-08-03T22:59:39.809Z,4.95
2022-08-03T23:02:21.005Z,4.80
2022-08-03T23:05:01.626Z,4.13
2022-08-03T23:07:36.007Z,4.78
2022-08-03T23:10:11.028Z,4.47
2022-08-03T23:12:42.158Z,4.45
2022-08-03T23:15:13.391Z,4.43
2022-08-03T23:17:58.266Z,4.25
2022-08-03T23:20:28.882Z,5.32
2022-08-03T23:22:57.790Z,5.22
2022-08-03T23:25:26.584Z,4.22
2022-08-03T23:28:04.621Z,4.05
2022-08-03T23:30:37.655Z,4.15
2022-08-03T23:33:06.650Z,4.72
2022-08-03T23:36:28.420Z,4.70
2022-08-03T23:38:43.515Z,5.43
2022-08-03T23:41:13.449Z,4.90
2022-08-03T23:43:51.799Z,5.03
2022-08-03T23:46:27.348Z,5.15
2022-08-03T23:48:56.643Z,5.18
2022-08-03T23:51:41.743Z,5.03
2022-08-03T23:54:40.391Z,4.38
2022-08-03T23:57:44.115Z,4.90
